Time;durP1;ratioP1;P1;durP2;ratioP2;P2;SDS_P1;SDS_P2;PMS_P1;PMS_P2;Temp;Humidity;BMP_temperature;BMP_pressure;BME280_temperature;BME280_humidity;BME280_pressure;Samples;Min_cycle;Max_cycle;Signal;HPM_P1;HPM_P2
2021/11/08 00:02:28;;;;;;;5.80;3.07;;;7.40;99.90;;;;;;5071338;28;20461;-70
2021/11/08 00:04:56;;;;;;;3.77;2.50;;;7.50;99.90;;;;;;5073760;28;20495;-69
2021/11/08 00:07:23;;;;;;;9.13;2.77;;;7.50;99.90;;;;;;5078080;28;20856;-70
2021/11/08 00:09:50;;;;;;;8.23;3.67;;;7.50;99.90;;;;;;5076412;28;20461;-69
2021/11/08 00:12:20;;;;;;;16.03;4.30;;;7.50;99.90;;;;;;5077440;28;20486;-71
2021/11/08 00:14:47;;;;;;;9.20;4.30;;;7.40;99.90;;;;;;5080243;28;20454;-71
2021/11/08 00:17:22;;;;;;;9.97;3.90;;;7.40;99.90;;;;;;5081515;28;20428;-69
2021/11/08 00:22:36;;;;;;;7.03;5.20;;;7.60;99.90;;;;;;5072799;28;20439;-69
2021/11/08 00:25:05;;;;;;;7.20;4.10;;;7.50;99.90;;;;;;5078683;28;20478;-70
2021/11/08 00:27:32;;;;;;;14.23;3.87;;;7.60;99.90;;;;;;5075849;28;20462;-68
2021/11/08 00:29:59;;;;;;;9.37;3.20;;;7.60;99.90;;;;;;5078729;28;20545;-70
2021/11/08 00:32:26;;;;;;;5.40;3.47;;;7.70;99.90;;;;;;5075650;28;21052;-68
2021/11/08 00:34:55;;;;;;;4.67;2.90;;;7.80;99.90;;;;;;5071262;28;20416;-69
2021/11/08 00:37:22;;;;;;;7.30;4.73;;;7.80;99.90;;;;;;5083688;28;20971;-69
2021/11/08 00:39:49;;;;;;;5.60;2.77;;;7.90;99.90;;;;;;5076502;28;20553;-69
2021/11/08 00:42:16;;;;;;;4.67;2.80;;;8.00;99.90;;;;;;5068858;28;21755;-69
2021/11/08 00:44:43;;;;;;;11.50;3.70;;;8.00;99.90;;;;;;5081757;28;20538;-72
2021/11/08 00:47:10;;;;;;;16.60;3.93;;;8.10;99.90;;;;;;5076693;28;20945;-69
2021/11/08 00:49:39;;;;;;;13.13;3.80;;;8.10;99.90;;;;;;5079070;28;20895;-69
2021/11/08 00:52:09;;;;;;;7.90;3.37;;;8.10;99.90;;;;;;5083060;28;20489;-71
2021/11/08 00:54:37;;;;;;;10.93;4.17;;;8.20;99.90;;;;;;5076585;28;20545;-69
2021/11/08 00:57:07;;;;;;;26.47;4.57;;;8.30;99.90;;;;;;5074876;28;20425;-68
2021/11/08 00:59:35;;;;;;;7.50;4.60;;;8.30;99.90;;;;;;5076999;28;21754;-69
2021/11/08 01:02:02;;;;;;;12.33;3.70;;;8.30;99.90;;;;;;5069515;28;20531;-72
2021/11/08 01:04:29;;;;;;;4.47;3.30;;;8.30;99.90;;;;;;5073761;28;20455;-69
2021/11/08 01:06:59;;;;;;;4.40;2.57;;;8.40;99.90;;;;;;5066336;28;20428;-71
2021/11/08 01:09:30;;;;;;;11.33;3.87;;;8.40;99.90;;;;;;5075108;28;20481;-71
2021/11/08 01:11:58;;;;;;;6.07;3.37;;;8.40;99.90;;;;;;5074856;28;20469;-69
2021/11/08 01:14:25;;;;;;;6.80;4.27;;;8.40;99.90;;;;;;5071585;28;20685;-70
2021/11/08 01:16:56;;;;;;;7.40;4.70;;;8.50;99.90;;;;;;5085358;28;20458;-72
2021/11/08 01:19:24;;;;;;;7.00;3.50;;;8.50;99.90;;;;;;5082010;28;20520;-70
2021/11/08 01:21:52;;;;;;;11.03;2.80;;;8.40;99.90;;;;;;5072691;28;20454;-72
2021/11/08 01:24:20;;;;;;;5.57;3.23;;;8.50;99.90;;;;;;5083962;28;20450;-70
2021/11/08 01:26:49;;;;;;;4.03;3.03;;;8.50;99.90;;;;;;5073863;28;20458;-70
2021/11/08 01:29:16;;;;;;;5.27;2.50;;;8.50;99.90;;;;;;5075010;28;27478;-68
2021/11/08 01:31:43;;;;;;;11.23;5.20;;;8.50;99.90;;;;;;5069827;28;20694;-70
2021/11/08 01:34:10;;;;;;;5.10;4.00;;;8.50;99.90;;;;;;5078642;28;20477;-70
2021/11/08 01:36:39;;;;;;;7.70;3.37;;;8.50;99.90;;;;;;5077644;28;20482;-72
2021/11/08 01:39:17;;;;;;;3.77;2.73;;;8.60;99.90;;;;;;5077024;28;20468;-69
2021/11/08 01:41:46;;;;;;;3.83;3.07;;;8.60;99.90;;;;;;5066146;28;20564;-71
2021/11/08 01:44:15;;;;;;;22.90;4.10;;;8.60;99.90;;;;;;5075259;28;20458;-71
2021/11/08 01:46:42;;;;;;;9.60;2.63;;;8.60;99.90;;;;;;5072094;28;20516;-69
2021/11/08 01:49:10;;;;;;;5.57;2.73;;;8.60;99.90;;;;;;5070592;28;20508;-72
2021/11/08 01:51:37;;;;;;;6.57;2.57;;;8.70;99.90;;;;;;5068646;28;21075;-72
2021/11/08 01:54:08;;;;;;;7.43;3.10;;;8.70;99.90;;;;;;5080795;28;20550;-69
2021/11/08 01:56:35;;;;;;;5.03;3.07;;;8.70;99.90;;;;;;5064917;28;20445;-69
2021/11/08 01:59:03;;;;;;;4.07;2.97;;;8.70;99.90;;;;;;5065809;28;21239;-70
2021/11/08 02:01:31;;;;;;;7.33;3.30;;;8.70;99.90;;;;;;5070668;28;21107;-72
2021/11/08 02:04:00;;;;;;;10.97;3.90;;;8.70;99.90;;;;;;5074554;28;20446;-69
2021/11/08 02:06:27;;;;;;;18.30;6.00;;;8.70;99.90;;;;;;5078240;28;20824;-72
2021/11/08 02:08:54;;;;;;;6.67;3.67;;;8.80;99.90;;;;;;5078128;28;20552;-70
2021/11/08 02:11:21;;;;;;;7.00;2.83;;;8.80;99.90;;;;;;5067221;28;20478;-70
2021/11/08 02:13:50;;;;;;;10.30;3.00;;;8.70;99.90;;;;;;5071411;28;21051;-69
2021/11/08 02:16:17;;;;;;;6.83;3.10;;;8.70;99.90;;;;;;5076345;28;20446;-70
2021/11/08 02:18:46;;;;;;;22.10;3.73;;;8.80;99.90;;;;;;5072602;28;20451;-70
2021/11/08 02:21:14;;;;;;;4.10;3.20;;;8.80;99.90;;;;;;5074863;28;20833;-69
2021/11/08 02:23:44;;;;;;;7.03;2.97;;;8.90;99.90;;;;;;5071937;28;20926;-69
2021/11/08 02:26:15;;;;;;;11.63;3.37;;;8.80;99.90;;;;;;5078990;28;20450;-69
2021/11/08 02:28:44;;;;;;;5.33;3.50;;;8.80;99.90;;;;;;5071634;28;20830;-71
2021/11/08 02:31:13;;;;;;;6.47;4.00;;;8.90;99.90;;;;;;5076383;28;20701;-70
2021/11/08 02:33:41;;;;;;;8.83;4.90;;;8.90;99.90;;;;;;5064412;28;21030;-69
2021/11/08 02:36:09;;;;;;;5.23;3.00;;;8.80;99.90;;;;;;5060010;28;20470;-70
2021/11/08 02:38:40;;;;;;;4.10;2.70;;;8.70;99.90;;;;;;5072995;28;20478;-69
2021/11/08 02:41:08;;;;;;;4.97;2.90;;;8.70;99.90;;;;;;5070125;28;20496;-69
2021/11/08 02:43:36;;;;;;;4.83;2.53;;;8.80;99.90;;;;;;5075974;28;20874;-71
2021/11/08 02:46:07;;;;;;;8.10;2.77;;;8.80;99.90;;;;;;5081713;28;20852;-70
2021/11/08 02:48:34;;;;;;;8.57;3.80;;;8.80;99.90;;;;;;5075946;28;20481;-69
2021/11/08 02:51:08;;;;;;;6.13;3.80;;;8.80;99.90;;;;;;5070095;28;20680;-70
2021/11/08 02:53:40;;;;;;;3.73;3.43;;;8.70;99.90;;;;;;5074552;28;21532;-69
2021/11/08 02:56:10;;;;;;;10.00;3.23;;;8.70;99.90;;;;;;5074046;28;20446;-69
2021/11/08 02:58:39;;;;;;;3.47;3.13;;;8.70;99.90;;;;;;5075332;28;20463;-73
2021/11/08 03:01:07;;;;;;;4.20;3.37;;;8.70;99.90;;;;;;5067083;28;20429;-72
2021/11/08 03:03:38;;;;;;;2.73;2.53;;;8.60;99.90;;;;;;5075576;28;20482;-69
2021/11/08 03:06:11;;;;;;;10.60;2.57;;;8.70;99.90;;;;;;5074163;28;20449;-72
2021/11/08 03:08:40;;;;;;;3.47;3.17;;;8.70;99.90;;;;;;5079000;28;20810;-70
2021/11/08 03:11:08;;;;;;;4.30;3.07;;;8.70;99.90;;;;;;5070797;28;20467;-69
2021/11/08 03:13:37;;;;;;;22.03;5.20;;;8.60;99.90;;;;;;5076320;28;20468;-70
2021/11/08 03:16:09;;;;;;;5.67;2.73;;;8.60;99.90;;;;;;5070369;28;20477;-70
2021/11/08 03:18:40;;;;;;;2.43;2.00;;;8.60;99.90;;;;;;5061431;28;21055;-70
2021/11/08 03:21:15;;;;;;;6.70;3.87;;;8.50;99.90;;;;;;5062507;28;20473;-69
2021/11/08 03:23:45;;;;;;;12.63;3.70;;;8.40;99.90;;;;;;5069644;28;22159;-70
2021/11/08 03:26:26;;;;;;;3.93;2.77;;;8.40;99.90;;;;;;5080729;28;20569;-70
2021/11/08 03:28:53;;;;;;;6.30;4.07;;;8.30;99.90;;;;;;5076983;28;20504;-69
2021/11/08 03:31:20;;;;;;;6.80;4.60;;;8.30;99.90;;;;;;5071020;28;20488;-70
2021/11/08 03:33:48;;;;;;;9.20;3.70;;;8.30;99.90;;;;;;5071181;28;20548;-69
2021/11/08 03:36:16;;;;;;;12.10;3.43;;;8.30;99.90;;;;;;5067596;28;20427;-68
2021/11/08 03:38:45;;;;;;;10.83;3.63;;;8.30;99.90;;;;;;5073123;28;20457;-72
2021/11/08 03:41:12;;;;;;;5.30;3.23;;;8.20;99.90;;;;;;5069766;28;20459;-71
2021/11/08 03:43:39;;;;;;;11.33;3.60;;;8.20;99.90;;;;;;5079791;28;20870;-70
2021/11/08 03:46:08;;;;;;;8.90;4.70;;;8.30;99.90;;;;;;5079977;28;20663;-72
2021/11/08 03:48:35;;;;;;;13.00;5.53;;;8.30;99.90;;;;;;5076296;28;20526;-70
2021/11/08 03:51:03;;;;;;;12.40;3.80;;;8.20;99.90;;;;;;5073034;28;20508;-69
2021/11/08 03:53:29;;;;;;;16.70;4.77;;;8.10;99.90;;;;;;5077497;28;20448;-69
2021/11/08 03:55:58;;;;;;;19.70;5.00;;;8.10;99.90;;;;;;5083896;28;20878;-72
2021/11/08 03:58:25;;;;;;;9.23;4.77;;;8.10;99.90;;;;;;5065019;28;20789;-69
2021/11/08 04:00:52;;;;;;;12.53;3.73;;;8.10;99.90;;;;;;5059419;28;20446;-72
2021/11/08 04:03:20;;;;;;;17.00;6.87;;;8.10;99.90;;;;;;5065742;28;21028;-68
2021/11/08 04:05:47;;;;;;;9.87;5.13;;;8.10;99.90;;;;;;5061711;28;20482;-71
2021/11/08 04:08:18;;;;;;;8.00;4.53;;;8.10;99.90;;;;;;5067458;28;20474;-72
2021/11/08 04:10:47;;;;;;;9.07;4.33;;;8.10;99.90;;;;;;5071783;28;20425;-70
2021/11/08 04:13:17;;;;;;;10.57;3.97;;;8.10;99.90;;;;;;5064398;28;20534;-69
2021/11/08 04:15:45;;;;;;;8.30;4.17;;;8.00;99.90;;;;;;5062305;28;21263;-70
2021/11/08 04:18:15;;;;;;;17.50;4.90;;;8.00;99.90;;;;;;5066801;28;20742;-69
2021/11/08 04:20:45;;;;;;;24.93;5.80;;;7.90;99.90;;;;;;5066552;28;20524;-71
2021/11/08 04:23:15;;;;;;;13.30;6.90;;;7.90;99.90;;;;;;5073192;28;20437;-70
2021/11/08 04:25:42;;;;;;;11.20;4.63;;;7.90;99.90;;;;;;5064659;28;20653;-73
2021/11/08 04:28:09;;;;;;;9.53;3.80;;;7.70;99.90;;;;;;5075814;28;20481;-70
2021/11/08 04:30:42;;;;;;;11.17;4.33;;;7.70;99.90;;;;;;5076550;28;20496;-72
2021/11/08 04:33:20;;;;;;;28.27;6.20;;;7.80;99.90;;;;;;5057648;28;20560;-72
2021/11/08 04:35:59;;;;;;;7.73;5.00;;;7.70;99.90;;;;;;5065405;28;20471;-71
2021/11/08 04:38:37;;;;;;;8.80;4.97;;;7.70;99.90;;;;;;5080476;28;20473;-70
2021/11/08 04:41:17;;;;;;;8.20;5.03;;;7.60;99.90;;;;;;5062819;28;20453;-69
2021/11/08 04:43:55;;;;;;;8.80;5.43;;;7.70;99.90;;;;;;5068797;28;20461;-69
2021/11/08 04:49:14;;;;;;;7.23;4.63;;;7.60;99.90;;;;;;5083436;28;20863;-72
2021/11/08 04:51:51;;;;;;;9.50;5.43;;;7.70;99.90;;;;;;5070233;28;20473;-69
2021/11/08 04:54:26;;;;;;;6.20;4.10;;;7.70;99.90;;;;;;5070446;28;20899;-72
2021/11/08 05:24:55;;;;;;;18.43;6.80;;;7.60;99.90;;;;;;5044257;28;20524;-70
2021/11/08 05:30:08;;;;;;;17.53;6.80;;;7.50;99.90;;;;;;5070465;28;20456;-70
2021/11/08 05:32:37;;;;;;;28.80;7.23;;;7.50;99.90;;;;;;5068108;28;20484;-71
2021/11/08 05:35:08;;;;;;;12.83;6.07;;;7.60;99.90;;;;;;5073316;28;20466;-70
2021/11/08 05:37:36;;;;;;;19.97;6.10;;;7.50;99.90;;;;;;5070417;28;20473;-70
2021/11/08 05:40:09;;;;;;;8.13;5.60;;;7.50;99.90;;;;;;5081998;28;21147;-70
2021/11/08 05:42:36;;;;;;;5.30;4.53;;;7.50;99.90;;;;;;5081330;28;20445;-69
2021/11/08 05:45:04;;;;;;;17.73;6.07;;;7.60;99.90;;;;;;5086127;28;20636;-71
2021/11/08 05:47:32;;;;;;;15.10;6.80;;;7.70;99.90;;;;;;5071649;28;20484;-71
2021/11/08 05:49:59;;;;;;;5.63;5.07;;;7.70;99.90;;;;;;5076608;28;20466;-73
2021/11/08 05:52:28;;;;;;;21.10;6.63;;;7.70;99.90;;;;;;5062560;28;20508;-72
2021/11/08 05:54:55;;;;;;;15.33;5.60;;;7.60;99.90;;;;;;5077727;28;20545;-72
2021/11/08 06:49:41;;;;;;;23.40;9.90;;;7.20;99.90;;;;;;5082748;28;22037;-70
2021/11/08 06:52:11;;;;;;;15.97;6.63;;;7.20;99.90;;;;;;5084058;28;20567;-71
2021/11/08 06:54:40;;;;;;;7.20;5.20;;;7.20;99.90;;;;;;5081842;28;20489;-72
2021/11/08 06:57:12;;;;;;;9.23;7.80;;;7.30;99.90;;;;;;5084793;28;20452;-70
2021/11/08 06:59:39;;;;;;;19.07;5.77;;;7.30;99.90;;;;;;5081470;28;20474;-70
2021/11/08 07:02:07;;;;;;;16.00;7.50;;;7.30;99.90;;;;;;5083670;28;20450;-69
2021/11/08 07:04:34;;;;;;;19.73;6.87;;;7.30;99.90;;;;;;5083438;28;20533;-70
2021/11/08 07:07:03;;;;;;;8.33;5.60;;;7.30;99.90;;;;;;5084725;28;20445;-70
2021/11/08 07:09:30;;;;;;;10.33;7.30;;;7.40;99.90;;;;;;5077854;28;20992;-71
2021/11/08 07:11:57;;;;;;;11.90;6.77;;;7.30;99.90;;;;;;5081936;28;20875;-70
2021/11/08 07:14:25;;;;;;;21.10;7.93;;;7.40;99.90;;;;;;5084312;28;20870;-71
2021/11/08 07:16:53;;;;;;;10.10;6.37;;;7.40;99.90;;;;;;5085514;28;21034;-71
2021/11/08 07:19:20;;;;;;;13.73;5.40;;;7.40;99.90;;;;;;5081643;28;20568;-71
2021/11/08 07:21:47;;;;;;;21.87;5.13;;;7.40;99.90;;;;;;5082398;28;20481;-69
2021/11/08 07:24:15;;;;;;;19.13;6.80;;;7.50;99.90;;;;;;5081578;28;20970;-71
2021/11/08 07:26:42;;;;;;;23.13;8.70;;;7.50;99.90;;;;;;5082854;28;20465;-70
2021/11/08 07:29:12;;;;;;;11.93;7.20;;;7.50;99.90;;;;;;5080556;28;20476;-72
2021/11/08 07:31:40;;;;;;;12.00;4.37;;;7.60;99.90;;;;;;5081275;28;20468;-69
2021/11/08 07:34:08;;;;;;;11.77;7.43;;;7.60;99.90;;;;;;5082852;28;20989;-70
2021/11/08 07:36:35;;;;;;;14.40;6.03;;;7.80;99.90;;;;;;5080761;28;20456;-70
2021/11/08 07:39:02;;;;;;;12.77;7.07;;;7.80;99.90;;;;;;5082630;28;20648;-71
2021/11/08 07:41:29;;;;;;;14.00;5.77;;;7.80;99.90;;;;;;5081284;28;20435;-70
2021/11/08 07:43:56;;;;;;;15.40;7.73;;;7.90;99.90;;;;;;5082572;28;20451;-71
2021/11/08 07:46:23;;;;;;;8.97;5.80;;;7.90;99.90;;;;;;5085297;28;20633;-71
2021/11/08 07:48:52;;;;;;;19.93;6.87;;;7.90;99.90;;;;;;5081132;28;20478;-72
2021/11/08 07:51:20;;;;;;;7.33;4.67;;;8.00;99.90;;;;;;5082489;28;20457;-70
2021/11/08 07:53:49;;;;;;;13.40;4.90;;;8.10;99.90;;;;;;5081554;28;20506;-70
2021/11/08 07:56:16;;;;;;;10.27;5.77;;;8.00;99.90;;;;;;5079772;28;20470;-70
2021/11/08 07:58:43;;;;;;;9.93;2.57;;;8.10;99.90;;;;;;5076376;28;20530;-71
2021/11/08 08:01:11;;;;;;;18.63;7.03;;;8.20;99.90;;;;;;5079865;28;20487;-70
2021/11/08 08:03:39;;;;;;;12.50;3.93;;;8.40;99.90;;;;;;5082668;28;20468;-72
2021/11/08 08:06:09;;;;;;;8.80;5.13;;;8.70;99.90;;;;;;5081375;28;20812;-70
2021/11/08 08:08:37;;;;;;;15.10;6.10;;;8.90;99.90;;;;;;5082153;28;20473;-72
2021/11/08 08:11:04;;;;;;;13.70;4.90;;;9.40;99.90;;;;;;5082190;28;20498;-72
2021/11/08 08:13:34;;;;;;;16.73;5.53;;;9.90;99.90;;;;;;5084307;28;20477;-71
2021/11/08 08:16:03;;;;;;;10.17;4.80;;;10.20;99.90;;;;;;5083328;28;20838;-72
2021/11/08 08:18:31;;;;;;;12.37;4.73;;;10.30;99.90;;;;;;5085153;28;20477;-74
2021/11/08 08:20:59;;;;;;;7.60;3.90;;;10.10;99.90;;;;;;5083550;28;20564;-74
2021/11/08 08:23:28;;;;;;;5.63;4.40;;;9.90;99.90;;;;;;5082733;28;20450;-73
2021/11/08 08:25:55;;;;;;;5.97;4.70;;;9.80;99.90;;;;;;5083671;28;20453;-71
2021/11/08 08:28:23;;;;;;;17.80;6.63;;;9.70;99.90;;;;;;5084013;28;20835;-71
2021/11/08 08:30:50;;;;;;;16.67;5.87;;;9.70;99.90;;;;;;5082996;28;20469;-73
2021/11/08 08:33:18;;;;;;;9.63;4.20;;;9.70;99.90;;;;;;5088469;28;20477;-70
2021/11/08 08:35:45;;;;;;;9.13;3.00;;;9.50;99.90;;;;;;5086002;28;20473;-70
2021/11/08 08:38:16;;;;;;;10.30;4.87;;;9.50;99.90;;;;;;5088887;28;20463;-71
2021/11/08 08:40:47;;;;;;;14.73;4.30;;;9.50;99.90;;;;;;5086920;28;20878;-69
2021/11/08 08:43:15;;;;;;;10.67;5.93;;;9.40;99.90;;;;;;5086622;28;20525;-71
2021/11/08 08:45:43;;;;;;;10.97;5.37;;;9.50;99.90;;;;;;5086286;28;20976;-70
2021/11/08 08:48:11;;;;;;;10.97;6.00;;;9.60;99.90;;;;;;5089898;28;20586;-70
2021/11/08 08:50:40;;;;;;;14.73;5.50;;;9.70;99.90;;;;;;5084552;28;20457;-70
2021/11/08 08:53:07;;;;;;;14.53;6.50;;;9.60;99.90;;;;;;5089100;28;20857;-71
2021/11/08 08:55:35;;;;;;;6.67;3.97;;;9.60;99.90;;;;;;5091138;28;20863;-71
2021/11/08 08:58:06;;;;;;;6.93;4.23;;;9.60;99.90;;;;;;5089315;28;21256;-70
2021/11/08 09:00:34;;;;;;;11.73;5.80;;;9.70;99.90;;;;;;5084650;28;20970;-70
2021/11/08 09:03:01;;;;;;;9.77;5.17;;;9.90;99.90;;;;;;5088072;28;20438;-70
2021/11/08 09:05:28;;;;;;;16.73;5.47;;;9.80;99.90;;;;;;5086200;28;20442;-73
2021/11/08 09:07:56;;;;;;;16.33;8.23;;;9.80;99.90;;;;;;5089865;28;20469;-70
2021/11/08 09:10:29;;;;;;;10.10;5.57;;;9.90;99.90;;;;;;5085712;28;20985;-70
2021/11/08 09:12:57;;;;;;;22.07;4.33;;;9.90;99.90;;;;;;5088448;28;20547;-69
2021/11/08 09:15:27;;;;;;;14.70;5.33;;;9.90;99.90;;;;;;5089573;28;21166;-70
2021/11/08 09:17:55;;;;;;;13.33;6.20;;;9.90;99.90;;;;;;5088364;28;20473;-70
2021/11/08 09:20:22;;;;;;;18.10;5.70;;;10.00;99.90;;;;;;5084507;28;20450;-70
2021/11/08 09:22:51;;;;;;;5.13;4.63;;;10.10;99.90;;;;;;5085888;28;20456;-73
2021/11/08 09:25:20;;;;;;;7.67;4.87;;;10.10;99.90;;;;;;5086483;28;20446;-71
2021/11/08 09:27:49;;;;;;;10.90;6.20;;;10.30;99.90;;;;;;5086785;28;20469;-71
2021/11/08 09:30:20;;;;;;;8.10;6.00;;;10.50;99.90;;;;;;5086874;28;20500;-70
2021/11/08 09:32:48;;;;;;;14.07;5.00;;;10.70;99.90;;;;;;5083513;28;20477;-70
2021/11/08 09:35:15;;;;;;;5.53;4.43;;;11.00;99.90;;;;;;5087489;28;20504;-71
2021/11/08 09:37:44;;;;;;;32.57;6.33;;;11.00;99.90;;;;;;5087550;28;21038;-69
2021/11/08 09:40:13;;;;;;;8.07;4.33;;;11.10;99.90;;;;;;5087193;28;20540;-70
2021/11/08 09:42:41;;;;;;;10.47;4.17;;;11.00;99.90;;;;;;5087650;28;20520;-72
2021/11/08 09:45:09;;;;;;;8.77;5.10;;;11.00;99.90;;;;;;5090183;28;20531;-69
2021/11/08 09:47:36;;;;;;;9.50;4.90;;;11.00;99.90;;;;;;5090288;28;20624;-72
2021/11/08 09:50:08;;;;;;;15.30;5.57;;;11.00;99.90;;;;;;5085592;28;20546;-70
2021/11/08 09:52:39;;;;;;;18.93;8.20;;;11.10;99.90;;;;;;5087675;28;20446;-69
2021/11/08 09:55:08;;;;;;;11.33;6.10;;;11.00;99.90;;;;;;5087806;28;20537;-71
2021/11/08 09:57:36;;;;;;;13.43;3.80;;;10.80;99.90;;;;;;5086522;28;20752;-70
2021/11/08 10:00:14;;;;;;;9.67;4.30;;;10.80;99.90;;;;;;5087982;28;20558;-69
2021/11/08 10:02:48;;;;;;;7.20;4.53;;;10.60;99.90;;;;;;5087629;28;20601;-69
2021/11/08 10:05:16;;;;;;;13.37;5.57;;;10.50;99.90;;;;;;5085118;28;20445;-70
2021/11/08 10:07:43;;;;;;;17.60;5.17;;;10.40;99.90;;;;;;5085061;28;20457;-70
2021/11/08 10:10:10;;;;;;;10.77;5.33;;;10.60;99.90;;;;;;5085638;28;20709;-71
2021/11/08 10:12:37;;;;;;;5.77;3.43;;;10.80;99.90;;;;;;5086758;28;20540;-69
2021/11/08 10:15:05;;;;;;;10.27;5.83;;;10.80;99.90;;;;;;5090474;28;20992;-70
2021/11/08 10:17:32;;;;;;;20.03;5.30;;;10.70;99.90;;;;;;5083336;28;20497;-72
2021/11/08 10:19:59;;;;;;;7.63;4.50;;;10.90;99.90;;;;;;5086794;28;20550;-70
2021/11/08 10:22:30;;;;;;;14.80;6.20;;;11.00;99.90;;;;;;5085006;28;20453;-70
2021/11/08 10:25:00;;;;;;;7.00;6.07;;;11.30;99.90;;;;;;5086971;28;20481;-70
2021/11/08 10:27:41;;;;;;;8.07;4.03;;;11.50;99.90;;;;;;5086530;28;21033;-71
2021/11/08 10:30:08;;;;;;;9.07;4.60;;;12.00;99.90;;;;;;5087053;28;20456;-70
2021/11/08 10:32:35;;;;;;;24.07;5.43;;;12.70;99.90;;;;;;5090770;28;20922;-69
2021/11/08 10:35:03;;;;;;;6.63;4.10;;;14.20;99.90;;;;;;5085564;28;20582;-69
2021/11/08 10:37:32;;;;;;;10.30;5.00;;;15.40;99.90;;;;;;5095063;28;20492;-71
2021/11/08 10:40:01;;;;;;;6.77;3.63;;;16.30;99.90;;;;;;5081994;28;20465;-69
2021/11/08 10:42:30;;;;;;;7.00;3.40;;;16.30;99.90;;;;;;5092055;28;20453;-69
2021/11/08 10:44:58;;;;;;;10.20;5.17;;;16.50;99.90;;;;;;5082593;28;20511;-70
2021/11/08 10:47:28;;;;;;;5.40;2.77;;;17.00;99.90;;;;;;5087811;28;20492;-70
2021/11/08 10:49:56;;;;;;;6.23;4.03;;;16.90;99.90;;;;;;5087603;28;20456;-69
2021/11/08 10:52:28;;;;;;;13.90;6.20;;;16.30;99.90;;;;;;5083431;28;21132;-70
2021/11/08 10:54:57;;;;;;;11.27;4.47;;;16.60;99.90;;;;;;5086124;28;20499;-70
2021/11/08 10:57:27;;;;;;;19.27;5.50;;;16.90;99.90;;;;;;5085314;28;20518;-68
2021/11/08 10:59:56;;;;;;;11.50;4.10;;;17.70;99.90;;;;;;5084242;28;20950;-69
2021/11/08 11:02:25;;;;;;;11.10;4.87;;;18.10;99.90;;;;;;5087340;28;20510;-71
2021/11/08 11:04:56;;;;;;;19.23;7.03;;;17.80;99.90;;;;;;5086465;28;21003;-69
2021/11/08 11:07:25;;;;;;;10.50;5.20;;;16.60;99.90;;;;;;5085875;28;20503;-71
2021/11/08 11:10:01;;;;;;;9.50;5.03;;;15.20;99.90;;;;;;5083077;28;20461;-69
2021/11/08 11:12:30;;;;;;;20.20;6.70;;;14.30;99.90;;;;;;5083831;28;20453;-69
2021/11/08 11:14:59;;;;;;;20.10;5.90;;;14.70;99.90;;;;;;5087192;28;20784;-69
2021/11/08 11:17:31;;;;;;;14.33;4.00;;;15.20;99.90;;;;;;5084593;28;20457;-70
2021/11/08 11:20:05;;;;;;;12.80;6.70;;;14.90;99.90;;;;;;5084080;28;20518;-69
2021/11/08 11:22:35;;;;;;;11.00;5.27;;;15.00;99.90;;;;;;5087001;28;20576;-70
2021/11/08 11:25:07;;;;;;;9.53;5.37;;;15.10;99.90;;;;;;5084106;28;20527;-71
2021/11/08 11:27:48;;;;;;;9.93;5.33;;;15.30;99.90;;;;;;5083922;28;20469;-70
2021/11/08 11:30:18;;;;;;;4.87;3.00;;;15.00;99.90;;;;;;5080317;28;20466;-70
2021/11/08 11:32:55;;;;;;;9.30;4.80;;;14.70;99.90;;;;;;5086782;28;20460;-71
2021/11/08 11:35:22;;;;;;;14.17;7.07;;;14.40;99.90;;;;;;5085423;28;20491;-69
2021/11/08 11:37:59;;;;;;;11.67;4.97;;;14.10;99.90;;;;;;5087204;28;20882;-69
2021/11/08 11:42:58;;;;;;;8.70;4.53;;;14.10;99.90;;;;;;5048547;28;20479;-67
2021/11/08 11:45:26;;;;;;;31.87;7.60;;;14.10;99.90;;;;;;5057385;28;20455;-68
2021/11/08 11:48:00;;;;;;;16.10;5.40;;;14.20;99.90;;;;;;5060760;28;21053;-67
2021/11/08 11:50:29;;;;;;;11.67;5.73;;;14.20;99.90;;;;;;5055004;28;20490;-66
2021/11/08 11:52:56;;;;;;;9.10;4.97;;;14.20;99.90;;;;;;5061456;28;20459;-67
2021/11/08 11:55:23;;;;;;;13.20;5.60;;;14.10;99.90;;;;;;5063111;28;20525;-69
2021/11/08 11:57:51;;;;;;;13.13;5.23;;;14.00;99.90;;;;;;5057089;28;20581;-66
2021/11/08 12:00:20;;;;;;;8.90;5.53;;;13.90;99.90;;;;;;5059649;28;21555;-67
2021/11/08 12:02:50;;;;;;;15.93;5.97;;;13.70;99.90;;;;;;5057092;28;20566;-67
2021/11/08 12:05:17;;;;;;;10.53;3.60;;;13.80;99.90;;;;;;5063867;28;20868;-67
2021/11/08 12:07:44;;;;;;;13.70;6.80;;;13.60;99.90;;;;;;5058328;28;20551;-68
2021/11/08 12:10:11;;;;;;;9.37;4.37;;;13.50;99.90;;;;;;5067706;28;20512;-68
2021/11/08 12:12:38;;;;;;;10.00;4.57;;;13.60;99.90;;;;;;5062806;28;20501;-67
2021/11/08 12:15:09;;;;;;;13.03;4.33;;;14.40;99.90;;;;;;5064788;28;21003;-68
2021/11/08 12:17:40;;;;;;;16.07;4.10;;;14.50;99.90;;;;;;5066125;28;20464;-68
2021/11/08 12:20:09;;;;;;;10.10;4.80;;;15.00;99.90;;;;;;5063434;28;20539;-68
2021/11/08 12:22:37;;;;;;;8.07;3.87;;;16.10;99.90;;;;;;5063958;28;20560;-69
2021/11/08 12:25:07;;;;;;;4.73;2.93;;;17.50;99.90;;;;;;5058506;28;21028;-68
2021/11/08 12:27:37;;;;;;;11.40;5.60;;;17.10;99.90;;;;;;5064284;28;20469;-68
2021/11/08 12:30:11;;;;;;;6.97;5.17;;;17.50;99.90;;;;;;5058508;28;20489;-68
2021/11/08 12:32:44;;;;;;;38.77;4.43;;;18.20;99.90;;;;;;5062164;28;20473;-68
2021/11/08 12:35:21;;;;;;;12.43;3.87;;;18.70;99.90;;;;;;5062858;28;20597;-67
2021/11/08 12:37:48;;;;;;;9.00;3.53;;;19.10;99.90;;;;;;5066317;28;21024;-66
2021/11/08 12:40:19;;;;;;;9.10;4.00;;;19.00;99.90;;;;;;5059785;28;20462;-70
2021/11/08 12:42:51;;;;;;;14.97;5.00;;;19.00;99.90;;;;;;5059833;28;20666;-66
2021/11/08 12:45:23;;;;;;;9.40;4.33;;;19.10;99.90;;;;;;5065709;28;20544;-67
2021/11/08 12:48:07;;;;;;;8.30;5.73;;;19.70;99.90;;;;;;5063533;28;21047;-67
2021/11/08 12:50:39;;;;;;;5.03;3.63;;;19.70;99.90;;;;;;5057674;28;20557;-67
2021/11/08 12:53:07;;;;;;;11.00;3.40;;;19.70;99.90;;;;;;5060736;28;20497;-67
2021/11/08 12:55:42;;;;;;;6.03;2.80;;;19.40;99.90;;;;;;5064730;28;20777;-67
2021/11/08 12:58:10;;;;;;;5.43;2.47;;;19.70;99.90;;;;;;5063331;28;20540;-68
2021/11/08 13:00:40;;;;;;;4.93;2.20;;;20.00;99.90;;;;;;5064528;28;20537;-68
2021/11/08 13:03:14;;;;;;;3.50;3.20;;;19.50;99.90;;;;;;5058533;28;20884;-67
2021/11/08 13:05:45;;;;;;;6.73;2.40;;;19.40;99.90;;;;;;5063633;28;20540;-66
2021/11/08 13:08:19;;;;;;;3.70;2.30;;;19.60;99.90;;;;;;5063259;28;20478;-67
2021/11/08 13:10:57;;;;;;;5.70;2.30;;;18.90;99.90;;;;;;5061164;28;20545;-67
2021/11/08 13:13:25;;;;;;;8.93;3.13;;;18.50;99.90;;;;;;5061067;28;20434;-68
2021/11/08 13:16:00;;;;;;;8.50;2.87;;;18.00;99.90;;;;;;5061458;28;21106;-66
2021/11/08 13:18:37;;;;;;;7.50;3.23;;;17.70;99.90;;;;;;5070094;28;20442;-67
2021/11/08 13:21:05;;;;;;;7.17;4.50;;;17.50;99.90;;;;;;5058728;28;20533;-65
2021/11/08 13:23:36;;;;;;;8.03;3.63;;;16.60;99.90;;;;;;5066097;28;20500;-67
2021/11/08 13:26:05;;;;;;;6.03;3.60;;;15.90;99.90;;;;;;5061051;28;20505;-67
2021/11/08 13:28:34;;;;;;;6.37;3.10;;;15.80;99.90;;;;;;5062807;28;20467;-67
2021/11/08 13:31:04;;;;;;;7.83;3.20;;;15.50;99.90;;;;;;5054653;28;21006;-69
2021/11/08 13:33:33;;;;;;;8.90;3.47;;;14.90;99.90;;;;;;5059101;28;20964;-67
2021/11/08 13:36:02;;;;;;;7.43;2.23;;;14.70;99.90;;;;;;5064786;28;20480;-67
2021/11/08 13:38:32;;;;;;;9.53;3.57;;;14.60;99.90;;;;;;5066857;28;20447;-67
2021/11/08 13:41:05;;;;;;;5.30;3.20;;;14.40;99.90;;;;;;5064663;28;20534;-67
2021/11/08 13:43:39;;;;;;;13.30;4.77;;;14.30;99.90;;;;;;5066659;28;20852;-67
2021/11/08 13:46:10;;;;;;;3.30;2.93;;;14.40;99.90;;;;;;5072912;28;20455;-68
2021/11/08 13:48:40;;;;;;;9.40;3.63;;;15.00;99.90;;;;;;5062276;28;20790;-67
2021/11/08 13:51:22;;;;;;;5.63;3.20;;;15.80;99.90;;;;;;5064529;28;20474;-68
2021/11/08 13:53:53;;;;;;;3.70;3.30;;;15.90;99.90;;;;;;5061941;28;20442;-66
2021/11/08 13:56:21;;;;;;;4.73;2.90;;;15.80;99.90;;;;;;5068182;28;20451;-68
2021/11/08 13:58:51;;;;;;;9.03;3.03;;;15.30;99.90;;;;;;5058075;28;20466;-67
2021/11/08 14:01:19;;;;;;;8.20;2.60;;;15.00;99.90;;;;;;5062242;28;20864;-68
2021/11/08 14:03:48;;;;;;;6.00;2.67;;;15.00;99.90;;;;;;5061591;28;20451;-65
2021/11/08 14:06:30;;;;;;;9.93;3.30;;;14.80;99.90;;;;;;5059865;28;20844;-67
2021/11/08 14:08:59;;;;;;;6.47;3.20;;;15.00;99.90;;;;;;5058715;28;20533;-68
2021/11/08 14:11:28;;;;;;;9.83;3.70;;;15.20;99.90;;;;;;5057194;28;20850;-67
2021/11/08 14:14:02;;;;;;;10.97;3.70;;;15.80;99.90;;;;;;5062912;28;21389;-67
2021/11/08 14:16:29;;;;;;;5.43;2.93;;;16.40;99.90;;;;;;5057659;28;20529;-67
2021/11/08 14:18:56;;;;;;;9.77;4.50;;;16.50;99.90;;;;;;5057546;28;20462;-67
2021/11/08 14:21:26;;;;;;;7.13;3.10;;;16.50;99.90;;;;;;5056375;28;20509;-65
2021/11/08 14:23:58;;;;;;;4.70;3.33;;;16.90;99.90;;;;;;5058970;28;20958;-67
2021/11/08 14:26:27;;;;;;;6.43;3.20;;;16.80;99.90;;;;;;5057674;28;20520;-68
2021/11/08 14:28:55;;;;;;;11.77;3.03;;;16.50;99.90;;;;;;5059819;28;20462;-67
2021/11/08 14:31:25;;;;;;;11.30;3.83;;;15.80;99.90;;;;;;5058622;28;20487;-66